sim
Sign-in with your pilot id or email,
or register
Callsign
Passwort

Schedule Details

Flight Number: DLH2149
Departure: Stuttgart Airport (EDDS) at 16:00
Arrival: Munich Airport (EDDM) at 16:45
Route: Lufthansa Passenger Schedule. Enter filed route here before submitting Pirep.

Weather Information
Getting current METAR information for EDDS 010350Z VRB01KT 7000 2800E BCFG FEW001 07/07 Q1008
Getting current METAR information for EDDM 010350Z 07001KT 0700 R08L/0800N R08R/0500N FG FEW001 03/03 Q1010 BECMG 0500 BKN001

Schedule Frequency

Route Map